createdAt,value
2022-12-29T00:00:07.459Z,1.20
2022-12-29T00:02:34.062Z,1.67
2022-12-29T00:05:00.574Z,1.55
2022-12-29T00:07:27.069Z,1.40
2022-12-29T00:09:53.480Z,1.20
2022-12-29T00:12:19.991Z,1.40
2022-12-29T00:15:05.435Z,1.20
2022-12-29T00:17:31.877Z,1.50
2022-12-29T00:20:16.746Z,1.30
2022-12-29T00:23:02.973Z,1.38
2022-12-29T00:25:48.167Z,1.30
2022-12-29T00:28:33.518Z,1.38
2022-12-29T00:31:19.944Z,1.23
2022-12-29T00:34:05.194Z,1.35
2022-12-29T00:36:35.935Z,1.50
2022-12-29T00:39:28.697Z,1.23
2022-12-29T00:42:13.603Z,1.23
2022-12-29T00:44:40.087Z,1.50
2022-12-29T00:47:06.610Z,1.30
2022-12-29T00:49:34.178Z,1.30
2022-12-29T00:52:02.265Z,1.42
2022-12-29T00:54:30.464Z,1.42
2022-12-29T00:56:57.048Z,2.10
2022-12-29T00:59:25.171Z,1.40
2022-12-29T01:01:53.654Z,1.60
2022-12-29T01:04:21.562Z,1.98
2022-12-29T01:06:48.081Z,1.38
2022-12-29T01:09:33.389Z,1.77
2022-12-29T01:12:00.834Z,1.25
2022-12-29T01:14:28.350Z,1.30
2022-12-29T01:16:55.756Z,1.60
2022-12-29T01:19:22.852Z,1.30
2022-12-29T01:21:49.877Z,1.50
2022-12-29T01:24:18.378Z,1.67
2022-12-29T01:26:45.314Z,1.60
2022-12-29T01:29:11.926Z,1.50
2022-12-29T01:31:39.167Z,1.30
2022-12-29T01:34:06.199Z,1.88
2022-12-29T01:36:32.703Z,1.45
2022-12-29T01:38:59.153Z,1.40
2022-12-29T01:41:26.658Z,1.27
2022-12-29T01:43:57.216Z,1.55
2022-12-29T01:46:46.384Z,1.35
2022-12-29T01:49:27.374Z,1.67
2022-12-29T01:52:05.390Z,1.30
2022-12-29T01:54:44.928Z,1.63
2022-12-29T01:57:21.479Z,1.25
2022-12-29T02:00:04.669Z,1.35
2022-12-29T02:02:33.625Z,1.60
2022-12-29T02:05:04.706Z,1.45
2022-12-29T02:07:32.283Z,1.52
2022-12-29T02:09:59.494Z,1.30
2022-12-29T02:12:25.968Z,1.20
2022-12-29T02:15:00.475Z,1.20
2022-12-29T02:17:45.129Z,1.30
2022-12-29T02:20:44.176Z,1.40
2022-12-29T02:23:31.214Z,1.20
2022-12-29T02:26:33.560Z,1.40
2022-12-29T02:29:25.521Z,1.20
2022-12-29T02:32:04.564Z,1.42
2022-12-29T02:34:41.847Z,1.05
2022-12-29T02:37:27.589Z,1.38
2022-12-29T02:40:17.154Z,1.20
2022-12-29T02:43:03.644Z,1.30
2022-12-29T02:45:36.779Z,1.15
2022-12-29T02:48:12.341Z,1.17
2022-12-29T02:51:04.839Z,1.10
2022-12-29T02:53:54.070Z,1.20
2022-12-29T02:56:20.567Z,1.23
2022-12-29T02:58:46.927Z,1.27
2022-12-29T03:01:25.493Z,1.33
2022-12-29T03:04:19.817Z,1.20
2022-12-29T03:07:04.208Z,1.30
2022-12-29T03:09:42.918Z,1.17
2022-12-29T03:12:21.128Z,1.20
2022-12-29T03:15:20.518Z,1.10
2022-12-29T03:17:58.757Z,1.25
2022-12-29T03:20:32.799Z,1.20
2022-12-29T03:23:02.832Z,1.10
2022-12-29T03:25:33.360Z,1.20
2022-12-29T03:28:26.864Z,1.35
2022-12-29T03:30:53.782Z,1.20
2022-12-29T03:33:26.611Z,1.48
2022-12-29T03:35:59.154Z,1.17
2022-12-29T03:38:40.940Z,1.20
2022-12-29T03:41:12.046Z,1.13
2022-12-29T03:43:38.654Z,1.10
2022-12-29T03:46:05.215Z,1.20
2022-12-29T03:48:33.724Z,1.20
2022-12-29T03:51:01.098Z,1.33
2022-12-29T03:53:27.488Z,1.30
2022-12-29T03:55:53.841Z,1.58
2022-12-29T03:58:20.310Z,0.98
2022-12-29T04:00:46.772Z,1.27
2022-12-29T04:03:13.164Z,1.20
2022-12-29T04:05:39.658Z,1.15
2022-12-29T04:08:06.323Z,1.20
2022-12-29T04:10:32.685Z,1.35
2022-12-29T04:12:59.072Z,1.20
2022-12-29T04:15:27.466Z,1.33
2022-12-29T04:17:54.001Z,1.10
2022-12-29T04:20:38.878Z,1.30
2022-12-29T04:23:07.131Z,1.35
2022-12-29T04:25:34.447Z,1.20
2022-12-29T04:28:01.107Z,1.20
2022-12-29T04:30:27.665Z,1.30
2022-12-29T04:32:54.105Z,1.30
2022-12-29T04:35:20.545Z,1.40
2022-12-29T04:37:47.061Z,1.08
2022-12-29T04:40:13.448Z,1.60
2022-12-29T04:42:39.938Z,1.23
2022-12-29T04:45:07.216Z,1.20
2022-12-29T04:47:33.759Z,1.20
2022-12-29T04:50:01.133Z,1.45
2022-12-29T04:52:27.632Z,1.20
2022-12-29T04:54:54.036Z,1.25
2022-12-29T04:57:20.543Z,1.23
2022-12-29T04:59:46.959Z,1.38
2022-12-29T05:02:13.403Z,1.20
2022-12-29T05:04:40.978Z,1.20
2022-12-29T05:07:07.457Z,1.25
2022-12-29T05:09:34.021Z,1.20
2022-12-29T05:12:00.758Z,1.48
2022-12-29T05:14:27.399Z,1.67
2022-12-29T05:16:53.821Z,1.42
2022-12-29T05:19:20.267Z,1.27
2022-12-29T05:21:46.611Z,1.50
2022-12-29T05:24:13.120Z,1.48
2022-12-29T05:26:39.578Z,1.65
2022-12-29T05:29:06.057Z,1.27
2022-12-29T05:31:32.514Z,1.20
2022-12-29T05:33:59.087Z,1.40
2022-12-29T05:36:25.503Z,1.50
2022-12-29T05:38:51.911Z,1.10
2022-12-29T05:41:18.579Z,1.45
2022-12-29T05:43:44.917Z,1.17
2022-12-29T05:46:11.982Z,1.30
2022-12-29T05:48:38.540Z,1.30
2022-12-29T05:51:05.499Z,1.30
2022-12-29T05:53:31.882Z,1.40
2022-12-29T05:55:58.419Z,1.40
2022-12-29T05:58:24.813Z,1.27
2022-12-29T06:00:51.791Z,1.30
2022-12-29T06:03:18.512Z,1.23
2022-12-29T06:05:47.031Z,1.30
2022-12-29T06:08:13.874Z,1.23
2022-12-29T06:10:40.646Z,1.20
2022-12-29T06:13:07.271Z,1.45
2022-12-29T06:15:34.332Z,1.30
2022-12-29T06:18:00.930Z,1.50
2022-12-29T06:20:27.393Z,1.20
2022-12-29T06:22:53.878Z,1.48
2022-12-29T06:25:20.310Z,1.13
2022-12-29T06:27:46.725Z,1.30
2022-12-29T06:30:13.970Z,1.40
2022-12-29T06:32:40.616Z,1.30
2022-12-29T06:35:07.559Z,1.10
2022-12-29T06:37:33.964Z,1.20
2022-12-29T06:40:00.368Z,1.20
2022-12-29T06:42:26.846Z,1.10
2022-12-29T06:44:53.349Z,1.20
2022-12-29T06:47:19.969Z,1.05
2022-12-29T06:49:46.611Z,1.40
2022-12-29T06:52:13.453Z,1.17
2022-12-29T06:54:40.776Z,1.00
2022-12-29T06:57:07.405Z,1.10
2022-12-29T06:59:34.130Z,1.23
2022-12-29T07:02:03.140Z,1.40
2022-12-29T07:04:30.224Z,1.30
2022-12-29T07:06:56.587Z,1.38
2022-12-29T07:09:23.038Z,1.50
2022-12-29T07:11:49.463Z,1.38
2022-12-29T07:14:15.806Z,1.40
2022-12-29T07:16:42.252Z,1.17
2022-12-29T07:19:08.710Z,1.40
2022-12-29T07:21:35.163Z,1.25
2022-12-29T07:24:01.538Z,1.20
2022-12-29T07:26:34.396Z,1.10
2022-12-29T07:29:03.869Z,1.30
2022-12-29T07:33:56.835Z,1.15
2022-12-29T07:36:23.303Z,1.48
2022-12-29T07:38:49.737Z,1.55
2022-12-29T07:41:16.115Z,1.50
2022-12-29T07:43:43.523Z,1.65
2022-12-29T07:46:19.014Z,1.70
2022-12-29T07:48:57.392Z,1.73
2022-12-29T07:51:23.834Z,1.30
2022-12-29T07:53:50.392Z,1.20
2022-12-29T07:56:16.747Z,1.33
2022-12-29T07:58:43.492Z,1.05
2022-12-29T08:01:10.018Z,1.58
2022-12-29T08:03:37.388Z,1.30
2022-12-29T08:06:04.046Z,1.15
2022-12-29T08:08:30.505Z,1.40
2022-12-29T08:10:56.885Z,1.10
2022-12-29T08:13:23.388Z,1.52
2022-12-29T08:15:50.480Z,1.60
2022-12-29T08:18:16.885Z,1.40
2022-12-29T08:20:43.280Z,1.63
2022-12-29T08:23:09.836Z,1.48
2022-12-29T08:25:36.211Z,1.63
2022-12-29T08:28:02.597Z,1.40
2022-12-29T08:30:29.184Z,1.95
2022-12-29T08:32:55.580Z,1.60
2022-12-29T08:35:21.960Z,1.50
2022-12-29T08:37:48.488Z,1.50
2022-12-29T08:40:14.892Z,1.50
2022-12-29T08:42:41.309Z,2.03
2022-12-29T08:45:09.606Z,2.13
2022-12-29T08:47:35.993Z,2.10
2022-12-29T08:50:02.429Z,2.00
2022-12-29T08:52:28.887Z,1.58
2022-12-29T08:54:55.398Z,1.77
2022-12-29T08:57:21.816Z,1.73
2022-12-29T08:59:48.236Z,1.58
2022-12-29T09:02:18.772Z,1.42
2022-12-29T09:04:48.602Z,1.48
2022-12-29T09:07:15.070Z,1.20
2022-12-29T09:09:41.548Z,1.80
2022-12-29T09:12:07.984Z,1.40
2022-12-29T09:14:34.377Z,1.45
2022-12-29T09:17:19.484Z,1.80
2022-12-29T09:19:45.974Z,1.05
2022-12-29T09:22:12.310Z,1.40
2022-12-29T09:24:38.900Z,1.38
2022-12-29T09:27:05.293Z,1.30
2022-12-29T09:29:32.068Z,1.52
2022-12-29T09:31:58.458Z,1.83
2022-12-29T09:34:24.850Z,1.33
2022-12-29T09:36:51.397Z,1.45
2022-12-29T09:39:17.961Z,1.00
2022-12-29T09:41:50.202Z,1.40
2022-12-29T09:44:39.003Z,1.30
2022-12-29T09:47:11.984Z,1.42
2022-12-29T09:49:47.108Z,1.80
2022-12-29T09:52:22.455Z,2.05
2022-12-29T09:55:00.095Z,1.83
2022-12-29T09:57:36.412Z,1.25
2022-12-29T10:00:13.880Z,1.25
2022-12-29T10:02:45.050Z,1.58
2022-12-29T10:05:27.523Z,1.35
2022-12-29T10:08:17.868Z,1.42
2022-12-29T10:10:55.968Z,1.80
2022-12-29T10:13:37.379Z,1.55
2022-12-29T10:16:18.468Z,1.70
2022-12-29T10:19:33.192Z,1.27
2022-12-29T10:22:14.418Z,1.25
2022-12-29T10:24:41.704Z,1.20
2022-12-29T10:28:52.765Z,1.57
2022-12-29T10:31:32.124Z,1.55
2022-12-29T10:34:02.824Z,1.35
2022-12-29T10:36:40.268Z,1.50
2022-12-29T10:39:20.313Z,1.13
2022-12-29T10:42:00.072Z,1.35
2022-12-29T10:44:30.709Z,1.35
2022-12-29T10:47:01.155Z,1.17
2022-12-29T10:49:30.430Z,1.10
2022-12-29T10:52:00.780Z,1.27
2022-12-29T10:54:57.351Z,1.33
2022-12-29T10:57:34.361Z,1.30
2022-12-29T11:00:00.865Z,1.30
2022-12-29T11:02:50.120Z,1.10
2022-12-29T11:05:28.607Z,1.27
2022-12-29T11:08:01.463Z,1.10
2022-12-29T11:10:33.522Z,1.20
2022-12-29T11:13:03.088Z,1.10
2022-12-29T11:15:45.282Z,1.40
2022-12-29T11:18:40.416Z,1.02
2022-12-29T11:21:25.974Z,1.27
2022-12-29T11:26:33.913Z,1.23
2022-12-29T11:29:22.603Z,1.48
2022-12-29T11:31:51.311Z,1.30
2022-12-29T11:34:47.551Z,1.38
2022-12-29T11:37:17.910Z,1.33
2022-12-29T11:39:53.242Z,1.70
2022-12-29T11:42:24.926Z,1.52
2022-12-29T11:44:52.533Z,1.30
2022-12-29T11:47:29.999Z,1.35
2022-12-29T11:50:05.096Z,1.40
2022-12-29T11:52:37.815Z,1.17
2022-12-29T11:55:08.444Z,1.30
2022-12-29T11:57:36.122Z,1.10
2022-12-29T12:00:15.146Z,1.15
2022-12-29T12:02:46.824Z,1.85
2022-12-29T12:05:19.157Z,1.58
2022-12-29T12:07:48.369Z,1.40
2022-12-29T12:10:23.899Z,1.10
2022-12-29T12:13:04.187Z,1.10
2022-12-29T12:15:46.770Z,1.27
2022-12-29T12:18:27.352Z,1.40
2022-12-29T12:20:57.811Z,1.15
2022-12-29T12:23:37.765Z,1.40
2022-12-29T12:26:19.132Z,1.40
2022-12-29T12:29:00.823Z,1.33
2022-12-29T12:31:55.016Z,1.10
2022-12-29T12:34:24.959Z,1.10
2022-12-29T12:37:12.400Z,1.00
2022-12-29T12:39:56.141Z,1.05
2022-12-29T12:42:49.339Z,1.50
2022-12-29T12:45:37.110Z,1.30
2022-12-29T12:48:22.552Z,1.38
2022-12-29T12:51:06.134Z,8.23
2022-12-29T12:53:59.715Z,1.33
2022-12-29T12:56:41.475Z,1.60
2022-12-29T12:59:22.452Z,1.40
2022-12-29T13:02:02.779Z,1.40
2022-12-29T13:05:04.144Z,1.10
2022-12-29T13:07:52.490Z,1.20
2022-12-29T13:10:40.097Z,1.25
2022-12-29T13:13:25.712Z,1.40
2022-12-29T13:16:14.503Z,1.15
2022-12-29T13:19:00.230Z,1.40
2022-12-29T13:21:58.659Z,1.45
2022-12-29T13:24:43.886Z,1.58
2022-12-29T13:27:21.224Z,1.45
2022-12-29T13:29:55.185Z,1.42
2022-12-29T13:32:40.036Z,1.30
2022-12-29T13:35:38.521Z,1.45
2022-12-29T13:38:13.586Z,1.42
2022-12-29T13:40:46.617Z,1.40
2022-12-29T13:43:15.331Z,1.88
2022-12-29T13:45:44.820Z,1.30
2022-12-29T13:48:18.381Z,1.90
2022-12-29T13:50:51.771Z,2.13
2022-12-29T13:56:07.623Z,1.60
2022-12-29T13:58:53.047Z,1.48
2022-12-29T14:01:31.573Z,1.98
2022-12-29T14:04:00.495Z,1.90
2022-12-29T14:06:32.002Z,1.48
2022-12-29T14:09:02.685Z,1.45
2022-12-29T14:11:37.764Z,1.35
2022-12-29T14:14:23.359Z,1.55
2022-12-29T14:19:40.497Z,1.50
2022-12-29T14:22:06.982Z,2.17
2022-12-29T14:24:36.057Z,1.70
2022-12-29T14:27:22.336Z,1.40
2022-12-29T14:29:52.340Z,2.55
2022-12-29T14:32:27.885Z,2.20
2022-12-29T14:34:59.133Z,2.17
2022-12-29T14:37:28.322Z,1.95
2022-12-29T14:40:18.884Z,2.00
2022-12-29T14:42:47.194Z,1.90
2022-12-29T14:45:13.431Z,2.20
2022-12-29T14:47:42.314Z,2.15
2022-12-29T14:50:15.656Z,1.52
2022-12-29T14:53:04.108Z,1.70
2022-12-29T14:55:41.490Z,1.45
2022-12-29T14:58:16.760Z,1.92
2022-12-29T15:00:43.564Z,2.20
2022-12-29T15:03:25.027Z,2.22
2022-12-29T15:06:09.976Z,2.05
2022-12-29T15:08:44.209Z,1.50
2022-12-29T15:11:36.945Z,1.75
2022-12-29T15:14:03.876Z,1.80
2022-12-29T15:16:32.599Z,1.63
2022-12-29T15:18:59.709Z,2.60
2022-12-29T15:21:32.181Z,2.22
2022-12-29T15:23:58.945Z,2.78
2022-12-29T15:26:39.036Z,4.70
2022-12-29T15:29:05.453Z,5.80
2022-12-29T15:31:31.920Z,2.88
2022-12-29T15:34:12.739Z,4.53
2022-12-29T15:36:41.632Z,5.22
2022-12-29T15:39:21.345Z,5.50
2022-12-29T15:41:56.227Z,6.65
2022-12-29T15:44:27.775Z,3.17
2022-12-29T15:46:54.427Z,3.67
2022-12-29T15:49:21.484Z,6.65
2022-12-29T15:51:47.883Z,4.00
2022-12-29T15:54:22.926Z,5.28
2022-12-29T15:56:50.172Z,5.30
2022-12-29T15:59:34.404Z,11.35
2022-12-29T16:02:08.606Z,7.57
2022-12-29T16:05:15.617Z,4.70
2022-12-29T16:07:40.780Z,5.25
2022-12-29T16:10:31.467Z,2.60
2022-12-29T16:13:13.350Z,3.58
2022-12-29T16:15:39.930Z,5.20
2022-12-29T16:18:06.248Z,5.55
2022-12-29T16:20:40.831Z,5.25
2022-12-29T16:23:20.406Z,4.43
2022-12-29T16:28:22.539Z,4.65
2022-12-29T16:31:16.985Z,4.38
2022-12-29T16:33:47.947Z,3.35
2022-12-29T16:36:26.061Z,5.90
2022-12-29T16:39:12.613Z,5.90
2022-12-29T16:41:38.927Z,4.82
2022-12-29T16:44:18.821Z,4.93
2022-12-29T16:46:57.018Z,3.95
2022-12-29T16:49:23.630Z,5.05
2022-12-29T16:51:50.542Z,5.75
2022-12-29T16:54:24.310Z,3.80
2022-12-29T16:56:52.051Z,3.28
2022-12-29T16:59:36.629Z,4.72
2022-12-29T17:02:09.498Z,4.00
2022-12-29T17:04:35.915Z,4.95
2022-12-29T17:07:02.448Z,4.47
2022-12-29T17:09:29.681Z,3.28
2022-12-29T17:12:03.061Z,3.40
2022-12-29T17:14:54.243Z,4.47
2022-12-29T17:19:54.934Z,7.10
2022-12-29T17:22:27.013Z,7.15
2022-12-29T17:24:55.322Z,5.55
2022-12-29T17:27:29.413Z,3.30
2022-12-29T17:29:59.508Z,3.20
2022-12-29T17:32:25.968Z,2.00
2022-12-29T17:34:52.269Z,2.42
2022-12-29T17:37:24.518Z,2.20
2022-12-29T17:39:51.586Z,2.33
2022-12-29T17:42:20.015Z,2.72
2022-12-29T17:44:47.074Z,2.42
2022-12-29T17:47:14.061Z,2.42
2022-12-29T17:49:40.402Z,1.98
2022-12-29T17:52:06.859Z,2.55
2022-12-29T17:54:34.293Z,3.10
2022-12-29T17:57:00.640Z,3.05
2022-12-29T17:59:27.056Z,2.20
2022-12-29T18:01:53.494Z,2.20
2022-12-29T18:04:20.580Z,4.90
2022-12-29T18:06:47.199Z,6.13
2022-12-29T18:09:14.145Z,4.68
2022-12-29T18:11:43.071Z,6.72
2022-12-29T18:14:16.917Z,7.10
2022-12-29T18:16:44.054Z,6.68
2022-12-29T18:19:10.396Z,5.25
2022-12-29T18:21:38.208Z,6.15
2022-12-29T18:24:04.829Z,7.85
2022-12-29T18:26:31.285Z,12.20
2022-12-29T18:28:58.915Z,7.18
2022-12-29T18:31:33.306Z,5.93
2022-12-29T18:34:02.445Z,5.47
2022-12-29T18:36:29.434Z,10.93
2022-12-29T18:38:55.786Z,12.25
2022-12-29T18:41:27.395Z,9.90
2022-12-29T18:43:53.711Z,9.75
2022-12-29T18:46:23.153Z,12.55
2022-12-29T18:48:50.963Z,9.70
2022-12-29T18:51:23.749Z,4.82
2022-12-29T18:53:50.857Z,4.70
2022-12-29T18:56:17.158Z,6.93
2022-12-29T18:58:43.530Z,6.55
2022-12-29T19:01:22.741Z,6.60
2022-12-29T19:03:49.561Z,6.53
2022-12-29T19:06:16.344Z,9.35
2022-12-29T19:08:42.705Z,8.35
2022-12-29T19:11:09.464Z,12.13
2022-12-29T19:13:35.828Z,11.13
2022-12-29T19:16:02.201Z,10.88
2022-12-29T19:18:46.289Z,9.88
2022-12-29T19:21:15.138Z,7.10
2022-12-29T19:23:41.477Z,7.28
2022-12-29T19:26:17.344Z,5.50
2022-12-29T19:28:43.826Z,6.15
2022-12-29T19:31:10.205Z,6.75
2022-12-29T19:33:36.563Z,6.70
2022-12-29T19:36:03.416Z,7.40
2022-12-29T19:38:29.753Z,7.93
2022-12-29T19:40:56.432Z,7.28
2022-12-29T19:43:22.813Z,6.93
2022-12-29T19:45:49.098Z,6.90
2022-12-29T19:48:18.454Z,7.22
2022-12-29T19:50:45.433Z,9.38
2022-12-29T19:53:12.806Z,7.25
2022-12-29T19:55:46.663Z,7.78
2022-12-29T19:58:13.883Z,5.05
2022-12-29T20:00:44.276Z,3.92
2022-12-29T20:03:11.502Z,4.32
2022-12-29T20:05:38.934Z,3.90
2022-12-29T20:08:05.534Z,3.97
2022-12-29T20:10:31.823Z,3.30
2022-12-29T20:12:58.149Z,2.92
2022-12-29T20:15:24.512Z,2.63
2022-12-29T20:20:37.431Z,3.80
2022-12-29T20:23:03.762Z,3.60
2022-12-29T20:25:47.031Z,3.83
2022-12-29T20:28:15.005Z,3.65
2022-12-29T20:30:41.368Z,3.67
2022-12-29T20:33:08.736Z,3.10
2022-12-29T20:35:36.686Z,2.80
2022-12-29T20:38:03.260Z,2.35
2022-12-29T20:40:29.548Z,2.30
2022-12-29T20:42:55.907Z,2.40
2022-12-29T20:45:22.326Z,2.30
2022-12-29T20:47:48.789Z,1.80
2022-12-29T20:50:15.221Z,2.47
2022-12-29T20:52:41.529Z,3.20
2022-12-29T20:55:08.056Z,3.15
2022-12-29T20:57:49.915Z,2.00
2022-12-29T21:00:22.809Z,2.00
2022-12-29T21:02:49.720Z,1.63
2022-12-29T21:05:24.882Z,2.28
2022-12-29T21:07:53.360Z,1.75
2022-12-29T21:10:20.252Z,1.98
2022-12-29T21:12:46.866Z,1.80
2022-12-29T21:15:13.809Z,1.17
2022-12-29T21:17:40.195Z,1.80
2022-12-29T21:20:07.043Z,2.05
2022-12-29T21:22:33.600Z,2.92
2022-12-29T21:24:59.890Z,2.13
2022-12-29T21:27:26.290Z,2.22
2022-12-29T21:29:52.559Z,2.25
2022-12-29T21:32:18.843Z,2.00
2022-12-29T21:34:46.737Z,1.92
2022-12-29T21:37:15.153Z,1.95
2022-12-29T21:39:43.636Z,1.67
2022-12-29T21:42:09.952Z,1.55
2022-12-29T21:44:36.262Z,1.40
2022-12-29T21:47:02.610Z,1.35
2022-12-29T21:49:28.912Z,1.27
2022-12-29T21:51:55.219Z,1.40
2022-12-29T21:54:24.944Z,1.02
2022-12-29T21:56:51.671Z,1.00
2022-12-29T21:59:18.146Z,0.98
2022-12-29T22:01:44.666Z,1.00
2022-12-29T22:04:15.900Z,1.00
2022-12-29T22:06:42.275Z,1.17
2022-12-29T22:09:08.630Z,0.95
2022-12-29T22:11:34.927Z,0.80
2022-12-29T22:14:01.334Z,0.90
2022-12-29T22:16:27.905Z,0.65
2022-12-29T22:18:54.239Z,0.80
2022-12-29T22:21:20.704Z,0.60
2022-12-29T22:23:47.029Z,0.70
2022-12-29T22:26:14.660Z,0.70
2022-12-29T22:28:42.950Z,0.40
2022-12-29T22:31:29.861Z,0.65
2022-12-29T22:33:57.710Z,0.50
2022-12-29T22:36:24.474Z,0.57
2022-12-29T22:38:50.972Z,0.40
2022-12-29T22:41:17.501Z,0.60
2022-12-29T22:43:44.068Z,0.80
2022-12-29T22:46:10.781Z,0.50
2022-12-29T22:48:37.788Z,0.32
2022-12-29T22:51:04.727Z,0.60
2022-12-29T22:53:31.102Z,0.30
2022-12-29T22:56:05.523Z,0.70
2022-12-29T22:58:31.962Z,0.88
2022-12-29T23:00:58.462Z,0.40
2022-12-29T23:03:25.057Z,0.55
2022-12-29T23:06:02.267Z,0.70
2022-12-29T23:08:32.572Z,0.40
2022-12-29T23:10:58.951Z,0.50
2022-12-29T23:13:25.390Z,0.55
2022-12-29T23:15:51.892Z,0.55
2022-12-29T23:18:18.397Z,0.50
2022-12-29T23:20:44.930Z,0.50
2022-12-29T23:23:11.535Z,0.30
2022-12-29T23:25:39.106Z,0.50
2022-12-29T23:30:34.206Z,0.40
2022-12-29T23:33:00.569Z,0.40
2022-12-29T23:35:26.889Z,0.43
2022-12-29T23:37:53.195Z,0.30
2022-12-29T23:40:19.607Z,0.50
2022-12-29T23:42:45.916Z,0.40
2022-12-29T23:45:12.695Z,0.35
2022-12-29T23:47:39.045Z,0.30
2022-12-29T23:50:05.915Z,0.52
2022-12-29T23:52:32.212Z,0.43
2022-12-29T23:54:58.618Z,0.43
2022-12-29T23:57:24.909Z,0.30
2022-12-29T23:59:51.195Z,0.40
